createdAt,value
2017-10-11T00:00:38.082Z,13.64
2017-10-11T00:03:05.570Z,13.60
2017-10-11T00:05:33.234Z,13.61
2017-10-11T00:08:00.723Z,13.56
2017-10-11T00:10:29.203Z,13.52
2017-10-11T00:12:56.697Z,13.55
2017-10-11T00:15:24.180Z,13.50
2017-10-11T00:17:51.677Z,13.47
2017-10-11T00:20:19.159Z,13.45
2017-10-11T00:22:46.675Z,13.40
2017-10-11T00:25:14.162Z,13.39
2017-10-11T00:27:41.689Z,13.38
2017-10-11T00:30:09.190Z,13.38
2017-10-11T00:32:36.686Z,13.33
2017-10-11T00:35:04.480Z,13.32
2017-10-11T00:37:31.955Z,13.34
2017-10-11T00:39:59.439Z,13.30
2017-10-11T00:42:26.917Z,13.32
2017-10-11T00:44:54.387Z,13.43
2017-10-11T00:47:21.882Z,13.50
2017-10-11T00:49:49.352Z,13.54
2017-10-11T00:52:16.871Z,13.49
2017-10-11T00:54:44.407Z,13.53
2017-10-11T00:57:12.150Z,13.50
2017-10-11T00:59:39.696Z,13.51
2017-10-11T01:02:07.166Z,13.49
2017-10-11T01:04:34.644Z,13.43
2017-10-11T01:07:02.115Z,13.43
2017-10-11T01:09:29.918Z,13.39
2017-10-11T01:11:57.391Z,13.39
2017-10-11T01:14:24.919Z,13.43
2017-10-11T01:16:52.396Z,13.51
2017-10-11T01:19:19.882Z,13.54
2017-10-11T01:21:47.362Z,13.48
2017-10-11T01:24:14.843Z,13.47
2017-10-11T01:26:42.319Z,13.45
2017-10-11T01:29:09.790Z,13.44
2017-10-11T01:31:37.287Z,13.42
2017-10-11T01:34:04.767Z,13.44
2017-10-11T01:36:32.327Z,13.39
2017-10-11T01:38:59.817Z,13.36
2017-10-11T01:41:27.352Z,13.38
2017-10-11T01:43:54.842Z,13.34
2017-10-11T01:46:22.318Z,13.28
2017-10-11T01:48:49.807Z,13.29
2017-10-11T01:51:17.275Z,13.27
2017-10-11T01:53:44.758Z,13.32
2017-10-11T01:56:12.254Z,13.39
2017-10-11T01:58:39.744Z,13.34
2017-10-11T02:01:07.231Z,13.31
2017-10-11T02:03:34.705Z,13.36
2017-10-11T02:06:02.181Z,13.37
2017-10-11T02:08:29.787Z,13.40
2017-10-11T02:10:57.340Z,13.42
2017-10-11T02:13:24.821Z,13.52
2017-10-11T02:15:52.295Z,13.46
2017-10-11T02:18:19.763Z,13.57
2017-10-11T02:20:47.285Z,13.61
2017-10-11T02:23:14.764Z,13.71
2017-10-11T02:25:42.256Z,13.72
2017-10-11T02:28:09.724Z,13.77
2017-10-11T02:30:37.190Z,13.77
2017-10-11T02:33:04.667Z,13.89
2017-10-11T02:35:32.136Z,13.89
2017-10-11T02:37:59.671Z,13.95
2017-10-11T02:40:27.149Z,14.07
2017-10-11T02:42:54.617Z,14.00
2017-10-11T02:45:22.108Z,13.96
2017-10-11T02:47:49.608Z,13.95
2017-10-11T02:50:17.116Z,13.97
2017-10-11T02:52:44.579Z,13.93
2017-10-11T02:55:12.035Z,14.04
2017-10-11T02:57:39.511Z,14.03
2017-10-11T03:00:07.002Z,13.88
2017-10-11T03:02:34.572Z,14.01
2017-10-11T03:05:02.135Z,13.99
2017-10-11T03:07:29.627Z,13.97
2017-10-11T03:09:57.112Z,13.83
2017-10-11T03:12:24.586Z,13.78
2017-10-11T03:14:52.088Z,13.77
2017-10-11T03:17:19.560Z,13.66
2017-10-11T03:19:47.034Z,13.67
2017-10-11T03:22:14.560Z,13.61
2017-10-11T03:24:42.291Z,13.58
2017-10-11T03:27:09.801Z,13.78
2017-10-11T03:29:37.263Z,13.74
2017-10-11T03:32:05.599Z,13.85
2017-10-11T03:34:33.086Z,13.89
2017-10-11T03:37:00.570Z,13.76
2017-10-11T03:39:28.075Z,13.75
2017-10-11T03:41:55.542Z,13.73
2017-10-11T03:44:23.002Z,13.74
2017-10-11T03:46:50.545Z,13.74
2017-10-11T03:49:18.003Z,13.69
2017-10-11T03:51:45.467Z,13.80
2017-10-11T03:54:12.934Z,13.74
2017-10-11T03:56:40.807Z,13.82
2017-10-11T03:59:08.869Z,13.80
2017-10-11T04:01:36.343Z,13.83
2017-10-11T04:04:03.828Z,13.81
2017-10-11T04:06:31.287Z,13.76
2017-10-11T04:08:58.784Z,13.60
2017-10-11T04:11:26.331Z,13.71
2017-10-11T04:13:53.827Z,13.65
2017-10-11T04:16:21.304Z,13.73
2017-10-11T04:18:48.857Z,13.66
2017-10-11T04:21:16.681Z,13.66
2017-10-11T04:23:44.140Z,13.72
2017-10-11T04:26:11.625Z,13.74
2017-10-11T04:28:39.104Z,13.70
2017-10-11T04:31:06.555Z,13.77
2017-10-11T04:33:34.008Z,13.75
2017-10-11T04:36:01.529Z,13.71
2017-10-11T04:38:29.006Z,13.75
2017-10-11T04:40:56.493Z,13.76
2017-10-11T04:43:23.956Z,13.77
2017-10-11T04:45:51.711Z,13.68
2017-10-11T04:48:19.169Z,13.55
2017-10-11T04:50:46.618Z,13.53
2017-10-11T04:53:14.114Z,13.65
2017-10-11T04:55:41.571Z,13.52
2017-10-11T04:58:09.036Z,13.39
2017-10-11T05:00:36.503Z,13.37
2017-10-11T05:03:04.403Z,13.31
2017-10-11T05:05:31.875Z,13.25
2017-10-11T05:07:59.337Z,13.29
2017-10-11T05:10:26.814Z,13.21
2017-10-11T05:12:54.333Z,13.28
2017-10-11T05:15:21.921Z,13.33
2017-10-11T05:17:49.410Z,13.31
2017-10-11T05:20:16.939Z,13.28
2017-10-11T05:22:44.455Z,13.21
2017-10-11T05:25:11.950Z,13.24
2017-10-11T05:27:40.090Z,13.17
2017-10-11T05:30:07.569Z,13.11
2017-10-11T05:32:35.718Z,13.11
2017-10-11T05:35:05.039Z,13.09
2017-10-11T05:37:32.742Z,13.05
2017-10-11T05:40:00.229Z,13.08
2017-10-11T05:42:30.014Z,13.06
2017-10-11T05:44:57.558Z,13.03
2017-10-11T05:47:25.031Z,13.06
2017-10-11T05:49:52.518Z,12.98
2017-10-11T05:52:20.088Z,12.94
2017-10-11T05:54:47.640Z,12.89
2017-10-11T05:57:15.124Z,12.85
2017-10-11T05:59:42.626Z,12.78
2017-10-11T06:02:10.120Z,12.81
2017-10-11T06:04:37.586Z,12.79
2017-10-11T06:07:05.065Z,12.77
2017-10-11T06:09:32.560Z,12.72
2017-10-11T06:12:00.470Z,12.63
2017-10-11T06:14:27.946Z,12.73
2017-10-11T06:16:55.420Z,12.70
2017-10-11T06:19:22.949Z,12.66
2017-10-11T06:21:50.524Z,12.62
2017-10-11T06:24:18.012Z,12.53
2017-10-11T06:26:45.568Z,12.51
2017-10-11T06:29:13.036Z,12.45
2017-10-11T06:31:40.615Z,12.40
2017-10-11T06:34:08.114Z,12.32
2017-10-11T06:36:35.585Z,12.27
2017-10-11T06:39:03.073Z,12.24
2017-10-11T06:41:30.544Z,12.25
2017-10-11T06:43:58.031Z,12.28
2017-10-11T06:46:25.514Z,12.34
2017-10-11T06:48:53.358Z,12.37
2017-10-11T06:51:20.887Z,12.43
2017-10-11T06:53:48.460Z,12.54
2017-10-11T06:56:15.982Z,12.65
2017-10-11T06:58:43.539Z,12.69
2017-10-11T07:01:11.037Z,12.73
2017-10-11T07:03:38.601Z,12.88
2017-10-11T07:06:06.116Z,12.90
2017-10-11T07:08:33.632Z,12.97
2017-10-11T07:11:01.135Z,12.98
2017-10-11T07:13:28.690Z,13.03
2017-10-11T07:15:56.198Z,13.10
2017-10-11T07:18:23.767Z,13.15
2017-10-11T07:20:52.402Z,13.30
2017-10-11T07:23:19.967Z,13.37
2017-10-11T07:25:48.100Z,13.43
2017-10-11T07:28:15.639Z,13.54
2017-10-11T07:30:43.468Z,13.51
2017-10-11T07:33:10.957Z,13.55
2017-10-11T07:35:38.452Z,13.60
2017-10-11T07:38:05.936Z,13.66
2017-10-11T07:40:33.415Z,13.70
2017-10-11T07:43:00.976Z,13.67
2017-10-11T07:45:28.469Z,13.77
2017-10-11T07:47:55.958Z,13.79
2017-10-11T07:50:23.435Z,13.86
2017-10-11T07:52:50.949Z,13.87
2017-10-11T07:55:18.529Z,14.00
2017-10-11T07:57:46.023Z,13.99
2017-10-11T08:00:13.599Z,14.04
2017-10-11T08:02:41.107Z,14.15
2017-10-11T08:05:08.629Z,14.17
2017-10-11T08:07:36.340Z,14.01
2017-10-11T08:10:03.890Z,14.09
2017-10-11T08:12:31.700Z,14.06
2017-10-11T08:14:59.334Z,14.00
2017-10-11T08:17:26.903Z,14.01
2017-10-11T08:19:54.392Z,14.00
2017-10-11T08:22:21.910Z,13.97
2017-10-11T08:24:49.455Z,13.95
2017-10-11T08:27:16.933Z,14.03
2017-10-11T08:29:44.410Z,14.10
2017-10-11T08:32:11.896Z,14.19
2017-10-11T08:34:39.380Z,14.19
2017-10-11T08:37:06.870Z,14.24
2017-10-11T08:39:34.384Z,14.25
2017-10-11T08:42:01.870Z,14.38
2017-10-11T08:44:29.667Z,14.48
2017-10-11T08:46:57.168Z,14.52
2017-10-11T08:49:24.653Z,14.55
2017-10-11T08:51:52.136Z,14.56
2017-10-11T08:54:19.623Z,14.69
2017-10-11T08:56:47.228Z,14.59
2017-10-11T08:59:14.701Z,14.71
2017-10-11T09:01:42.163Z,14.68
2017-10-11T09:04:09.710Z,14.74
2017-10-11T09:06:37.172Z,14.68
2017-10-11T09:09:04.633Z,14.70
2017-10-11T09:11:32.093Z,14.68
2017-10-11T09:13:59.596Z,14.81
2017-10-11T09:16:27.072Z,14.79
2017-10-11T09:18:54.903Z,14.83
2017-10-11T09:21:22.410Z,14.86
2017-10-11T09:23:49.887Z,14.90
2017-10-11T09:26:17.440Z,14.88
2017-10-11T09:28:44.937Z,14.89
2017-10-11T09:31:12.747Z,14.87
2017-10-11T09:33:40.207Z,14.97
2017-10-11T09:36:07.704Z,15.01
2017-10-11T09:38:35.204Z,14.95
2017-10-11T09:41:02.673Z,14.97
2017-10-11T09:43:30.160Z,14.99
2017-10-11T09:45:57.672Z,15.07
2017-10-11T09:48:25.455Z,15.05
2017-10-11T09:50:52.927Z,15.09
2017-10-11T09:53:20.395Z,15.06
2017-10-11T09:55:47.945Z,15.13
2017-10-11T09:58:15.464Z,15.03
2017-10-11T10:00:42.925Z,15.05
2017-10-11T10:03:10.447Z,15.15
2017-10-11T10:05:37.988Z,15.20
2017-10-11T10:08:05.495Z,15.31
2017-10-11T10:10:32.976Z,15.38
2017-10-11T10:13:00.460Z,15.35
2017-10-11T10:15:27.958Z,15.40
2017-10-11T10:17:55.463Z,15.39
2017-10-11T10:20:22.957Z,15.49
2017-10-11T10:22:50.434Z,15.46
2017-10-11T10:25:17.919Z,15.52
2017-10-11T10:27:45.402Z,15.49
2017-10-11T10:30:12.911Z,15.54
2017-10-11T10:32:40.404Z,15.49
2017-10-11T10:35:07.864Z,15.59
2017-10-11T10:37:35.341Z,15.61
2017-10-11T10:40:02.812Z,15.64
2017-10-11T10:42:30.338Z,15.66
2017-10-11T10:44:57.804Z,15.71
2017-10-11T10:47:25.267Z,15.64
2017-10-11T10:49:52.743Z,15.68
2017-10-11T10:52:20.236Z,15.80
2017-10-11T10:54:47.763Z,15.80
2017-10-11T10:57:15.291Z,15.82
2017-10-11T10:59:42.754Z,15.74
2017-10-11T11:02:10.248Z,15.67
2017-10-11T11:04:37.748Z,15.54
2017-10-11T11:07:05.239Z,15.55
2017-10-11T11:09:32.708Z,15.56
2017-10-11T11:12:00.557Z,15.61
2017-10-11T11:14:28.030Z,15.52
2017-10-11T11:16:55.526Z,15.53
2017-10-11T11:19:23.054Z,15.54
2017-10-11T11:21:50.519Z,15.54
2017-10-11T11:24:18.029Z,15.61
2017-10-11T11:26:45.502Z,15.67
2017-10-11T11:29:12.972Z,15.63
2017-10-11T11:31:40.476Z,15.59
2017-10-11T11:34:07.945Z,15.61
2017-10-11T11:36:35.441Z,15.53
2017-10-11T11:39:02.920Z,15.58
2017-10-11T11:41:30.383Z,15.41
2017-10-11T11:43:57.879Z,15.44
2017-10-11T11:46:25.409Z,15.63
2017-10-11T11:48:52.915Z,15.63
2017-10-11T11:51:20.397Z,15.58
2017-10-11T11:53:48.231Z,15.51
2017-10-11T11:56:15.690Z,15.63
2017-10-11T11:58:43.242Z,15.73
2017-10-11T12:01:10.739Z,15.73
2017-10-11T12:03:38.226Z,15.80
2017-10-11T12:06:05.722Z,15.71
2017-10-11T12:08:33.219Z,15.68
2017-10-11T12:11:00.727Z,15.75
2017-10-11T12:13:28.249Z,15.86
2017-10-11T12:15:55.777Z,15.81
2017-10-11T12:18:23.267Z,15.79
2017-10-11T12:20:50.746Z,15.77
2017-10-11T12:23:18.277Z,15.89
2017-10-11T12:25:45.797Z,15.88
2017-10-11T12:28:13.314Z,16.00
2017-10-11T12:30:40.798Z,16.07
2017-10-11T12:33:08.275Z,16.07
2017-10-11T12:35:35.783Z,15.98
2017-10-11T12:38:04.203Z,15.99
2017-10-11T12:40:31.681Z,16.06
2017-10-11T12:42:59.188Z,15.97
2017-10-11T12:45:26.744Z,15.93
2017-10-11T12:47:54.246Z,16.06
2017-10-11T12:50:21.733Z,16.08
2017-10-11T12:52:49.229Z,16.17
2017-10-11T12:55:16.718Z,16.13
2017-10-11T12:57:44.225Z,16.04
2017-10-11T13:00:11.714Z,16.06
2017-10-11T13:02:39.200Z,15.95
2017-10-11T13:05:06.658Z,16.13
2017-10-11T13:07:34.139Z,16.04
2017-10-11T13:10:01.600Z,15.97
2017-10-11T13:12:29.122Z,15.94
2017-10-11T13:14:56.584Z,16.14
2017-10-11T13:17:24.152Z,16.11
2017-10-11T13:19:51.740Z,16.07
2017-10-11T13:22:19.279Z,16.11
2017-10-11T13:24:46.776Z,16.09
2017-10-11T13:27:14.328Z,16.09
2017-10-11T13:29:41.838Z,16.08
2017-10-11T13:32:09.360Z,16.05
2017-10-11T13:34:36.862Z,16.04
2017-10-11T13:37:04.362Z,15.94
2017-10-11T13:39:31.868Z,15.87
2017-10-11T13:41:59.362Z,15.96
2017-10-11T13:44:26.862Z,15.94
2017-10-11T13:46:54.359Z,16.04
2017-10-11T13:49:21.836Z,15.93
2017-10-11T13:51:49.318Z,15.87
2017-10-11T13:54:16.815Z,15.92
2017-10-11T13:56:44.283Z,15.84
2017-10-11T13:59:11.773Z,15.85
2017-10-11T14:01:39.249Z,15.92
2017-10-11T14:04:06.740Z,15.90
2017-10-11T14:06:34.214Z,15.90
2017-10-11T14:09:01.718Z,15.81
2017-10-11T14:11:29.180Z,15.85
2017-10-11T14:13:56.688Z,15.91
2017-10-11T14:16:24.182Z,15.90
2017-10-11T14:18:51.644Z,15.87
2017-10-11T14:21:19.113Z,15.87
2017-10-11T14:23:46.600Z,15.84
2017-10-11T14:26:14.062Z,15.91
2017-10-11T14:28:41.544Z,15.97
2017-10-11T14:31:09.082Z,15.84
2017-10-11T14:33:36.558Z,15.78
2017-10-11T14:36:04.122Z,15.71
2017-10-11T14:38:31.628Z,15.67
2017-10-11T14:40:59.118Z,15.67
2017-10-11T14:43:26.630Z,15.63
2017-10-11T14:45:54.417Z,15.61
2017-10-11T14:48:21.932Z,15.67
2017-10-11T14:50:49.396Z,15.69
2017-10-11T14:53:16.883Z,15.71
2017-10-11T14:55:44.335Z,15.67
2017-10-11T14:58:11.834Z,15.65
2017-10-11T15:00:39.328Z,15.67
2017-10-11T15:03:06.850Z,15.69
2017-10-11T15:05:34.348Z,15.70
2017-10-11T15:08:01.896Z,15.67
2017-10-11T15:10:29.414Z,15.63
2017-10-11T15:12:56.882Z,15.70
2017-10-11T15:15:24.429Z,15.64
2017-10-11T15:17:51.914Z,15.65
2017-10-11T15:20:19.379Z,15.58
2017-10-11T15:22:46.910Z,15.64
2017-10-11T15:25:14.381Z,15.61
2017-10-11T15:27:41.862Z,15.62
2017-10-11T15:30:09.313Z,15.65
2017-10-11T15:32:36.790Z,15.68
2017-10-11T15:35:04.305Z,15.71
2017-10-11T15:37:31.778Z,15.67
2017-10-11T15:39:59.873Z,15.70
2017-10-11T15:42:27.370Z,15.67
2017-10-11T15:44:54.885Z,15.66
2017-10-11T15:47:22.630Z,15.68
2017-10-11T15:49:50.102Z,15.59
2017-10-11T15:52:17.576Z,15.54
2017-10-11T15:54:45.067Z,15.53
2017-10-11T15:57:12.554Z,15.58
2017-10-11T15:59:40.047Z,15.53
2017-10-11T16:02:07.534Z,15.52
2017-10-11T16:04:35.007Z,15.51
2017-10-11T16:07:02.494Z,15.54
2017-10-11T16:09:29.952Z,15.51
2017-10-11T16:11:57.439Z,15.53
2017-10-11T16:14:24.932Z,15.50
2017-10-11T16:16:52.400Z,15.50
2017-10-11T16:19:19.881Z,15.51
2017-10-11T16:21:47.380Z,15.52
2017-10-11T16:24:14.872Z,15.50
2017-10-11T16:26:42.355Z,15.49
2017-10-11T16:29:09.821Z,15.59
2017-10-11T16:31:37.306Z,15.62
2017-10-11T16:34:04.775Z,15.56
2017-10-11T16:36:32.257Z,15.53
2017-10-11T16:39:00.169Z,15.57
2017-10-11T16:41:27.627Z,15.65
2017-10-11T16:43:55.097Z,15.66
2017-10-11T16:46:22.592Z,15.68
2017-10-11T16:48:50.064Z,15.66
2017-10-11T16:51:17.543Z,15.66
2017-10-11T16:53:45.058Z,15.64
2017-10-11T16:56:12.560Z,15.66
2017-10-11T16:58:40.080Z,15.68
2017-10-11T17:01:07.849Z,15.69
2017-10-11T17:03:35.317Z,15.67
2017-10-11T17:06:02.865Z,15.56
2017-10-11T17:08:30.400Z,15.53
2017-10-11T17:10:57.877Z,15.49
2017-10-11T17:13:25.327Z,15.43
2017-10-11T17:15:52.825Z,15.42
2017-10-11T17:18:20.295Z,15.38
2017-10-11T17:20:48.050Z,15.36
2017-10-11T17:23:15.544Z,15.41
2017-10-11T17:25:43.062Z,15.34
2017-10-11T17:28:10.532Z,15.33
2017-10-11T17:30:38.023Z,15.45
2017-10-11T17:33:05.507Z,15.42
2017-10-11T17:35:32.976Z,15.46
2017-10-11T17:38:00.478Z,15.44
2017-10-11T17:40:27.946Z,15.42
2017-10-11T17:42:55.417Z,15.39
2017-10-11T17:45:22.918Z,15.38
2017-10-11T17:47:50.393Z,15.33
2017-10-11T17:50:17.873Z,15.29
2017-10-11T17:52:45.334Z,15.29
2017-10-11T17:55:12.827Z,15.28
2017-10-11T17:57:40.298Z,15.25
2017-10-11T18:00:07.761Z,15.25
2017-10-11T18:02:35.306Z,15.22
2017-10-11T18:05:02.786Z,15.18
2017-10-11T18:07:30.301Z,15.22
2017-10-11T18:09:57.765Z,15.23
2017-10-11T18:12:25.264Z,15.14
2017-10-11T18:14:52.755Z,15.13
2017-10-11T18:17:20.235Z,15.11
2017-10-11T18:19:47.703Z,15.06
2017-10-11T18:22:15.182Z,15.06
2017-10-11T18:24:42.666Z,15.01
2017-10-11T18:27:10.125Z,14.95
2017-10-11T18:29:37.627Z,14.92
2017-10-11T18:32:05.152Z,14.85
2017-10-11T18:34:32.621Z,14.85
2017-10-11T18:37:00.103Z,14.82
2017-10-11T18:39:27.584Z,14.76
2017-10-11T18:41:56.705Z,14.68
2017-10-11T18:44:24.218Z,14.72
2017-10-11T18:46:51.726Z,14.63
2017-10-11T18:49:19.395Z,14.64
2017-10-11T18:51:46.880Z,14.61
2017-10-11T18:54:14.359Z,14.59
2017-10-11T18:56:41.900Z,14.55
2017-10-11T18:59:09.386Z,14.52
2017-10-11T19:01:36.911Z,14.49
2017-10-11T19:04:04.392Z,14.44
2017-10-11T19:06:31.844Z,14.33
2017-10-11T19:08:59.348Z,14.29
2017-10-11T19:11:27.458Z,14.14
2017-10-11T19:13:54.944Z,14.16
2017-10-11T19:16:22.424Z,14.11
2017-10-11T19:18:49.885Z,14.08
2017-10-11T19:21:17.362Z,14.01
2017-10-11T19:23:44.824Z,13.97
2017-10-11T19:26:12.285Z,13.88
2017-10-11T19:28:39.841Z,13.84
2017-10-11T19:31:07.306Z,13.80
2017-10-11T19:33:34.784Z,13.78
2017-10-11T19:36:02.334Z,13.77
2017-10-11T19:38:29.797Z,13.76
2017-10-11T19:40:57.307Z,13.72
2017-10-11T19:43:24.790Z,13.69
2017-10-11T19:45:52.298Z,13.70
2017-10-11T19:48:19.769Z,13.70
2017-10-11T19:50:47.250Z,13.75
2017-10-11T19:53:15.138Z,13.77
2017-10-11T19:55:42.602Z,13.80
2017-10-11T19:58:10.091Z,13.76
2017-10-11T20:00:37.635Z,13.80
2017-10-11T20:03:05.108Z,13.79
2017-10-11T20:05:32.648Z,13.82
2017-10-11T20:08:00.128Z,13.82
2017-10-11T20:10:27.655Z,13.75
2017-10-11T20:12:55.140Z,13.84
2017-10-11T20:15:23.010Z,13.86
2017-10-11T20:17:50.471Z,13.93
2017-10-11T20:20:17.924Z,14.01
2017-10-11T20:22:45.425Z,13.99
2017-10-11T20:25:12.909Z,13.99
2017-10-11T20:27:40.512Z,14.07
2017-10-11T20:30:07.978Z,14.10
2017-10-11T20:32:35.439Z,14.12
2017-10-11T20:35:02.921Z,14.13
2017-10-11T20:37:30.377Z,14.06
2017-10-11T20:39:57.847Z,13.96
2017-10-11T20:42:25.299Z,13.91
2017-10-11T20:44:52.770Z,13.89
2017-10-11T20:47:20.253Z,13.94
2017-10-11T20:49:47.736Z,13.91
2017-10-11T20:52:15.213Z,13.93
2017-10-11T20:54:42.722Z,13.93
2017-10-11T20:57:10.236Z,13.83
2017-10-11T20:59:37.705Z,13.79
2017-10-11T21:02:05.198Z,13.80
2017-10-11T21:04:32.672Z,13.85
2017-10-11T21:07:00.139Z,13.81
2017-10-11T21:09:27.750Z,13.84
2017-10-11T21:11:55.211Z,13.81
2017-10-11T21:14:22.789Z,13.88
2017-10-11T21:16:50.243Z,13.95
2017-10-11T21:19:17.735Z,14.03
2017-10-11T21:21:45.203Z,14.17
2017-10-11T21:24:12.661Z,14.08
2017-10-11T21:26:40.137Z,14.12
2017-10-11T21:29:07.618Z,14.08
2017-10-11T21:31:35.458Z,14.07
2017-10-11T21:34:02.925Z,14.14
2017-10-11T21:36:30.422Z,14.10
2017-10-11T21:38:57.977Z,14.11
2017-10-11T21:41:25.432Z,14.06
2017-10-11T21:43:52.924Z,14.04
2017-10-11T21:46:20.440Z,14.00
2017-10-11T21:48:47.926Z,13.94
2017-10-11T21:51:15.390Z,13.89
2017-10-11T21:53:42.874Z,13.85
2017-10-11T21:56:10.363Z,13.82
2017-10-11T21:58:37.850Z,13.65
2017-10-11T22:01:05.326Z,13.60
2017-10-11T22:03:32.787Z,13.59
2017-10-11T22:06:00.252Z,13.47
2017-10-11T22:08:27.707Z,13.39
2017-10-11T22:10:55.184Z,13.30
2017-10-11T22:13:22.616Z,13.23
2017-10-11T22:15:50.042Z,13.13
2017-10-11T22:18:17.491Z,13.10
2017-10-11T22:20:44.982Z,13.03
2017-10-11T22:23:12.434Z,13.00
2017-10-11T22:25:39.902Z,12.98
2017-10-11T22:28:07.377Z,12.91
2017-10-11T22:30:34.776Z,12.87
2017-10-11T22:33:02.342Z,12.85
2017-10-11T22:35:29.814Z,12.81
2017-10-11T22:37:57.291Z,12.79
2017-10-11T22:40:24.827Z,12.80
2017-10-11T22:42:52.294Z,12.80
2017-10-11T22:45:19.762Z,12.76
2017-10-11T22:47:47.224Z,12.72
2017-10-11T22:50:14.701Z,12.75
2017-10-11T22:52:42.138Z,12.78
2017-10-11T22:55:09.581Z,12.81
2017-10-11T22:57:37.032Z,12.89
2017-10-11T23:00:04.460Z,12.96
2017-10-11T23:02:31.954Z,12.92
2017-10-11T23:04:59.398Z,12.91
2017-10-11T23:07:26.870Z,12.89
2017-10-11T23:09:54.325Z,12.89
2017-10-11T23:12:21.792Z,12.85
2017-10-11T23:14:49.181Z,12.82
2017-10-11T23:17:16.603Z,12.83
2017-10-11T23:19:44.073Z,12.90
2017-10-11T23:22:11.463Z,12.94
2017-10-11T23:24:38.924Z,12.93
2017-10-11T23:27:06.418Z,13.03
2017-10-11T23:29:33.853Z,13.03
2017-10-11T23:32:01.342Z,13.01
2017-10-11T23:34:28.785Z,12.93
2017-10-11T23:36:56.213Z,12.91
2017-10-11T23:39:23.705Z,12.90
2017-10-11T23:41:51.164Z,12.86
2017-10-11T23:44:18.577Z,12.83
2017-10-11T23:46:46.000Z,12.85
2017-10-11T23:49:13.416Z,12.83
2017-10-11T23:51:40.824Z,12.80
2017-10-11T23:54:08.342Z,12.93
2017-10-11T23:56:35.775Z,13.03
2017-10-11T23:59:03.235Z,13.04
